sensor_id;sensor_type;location;lat;lon;timestamp;P1;durP1;ratioP1;P2;durP2;ratioP2
13571;SDS011;6857;53.484;10.216;2022-10-31T00:01:12;42.53;;;25.07;;
13571;SDS011;6857;53.484;10.216;2022-10-31T00:03:40;39.37;;;24.93;;
13571;SDS011;6857;53.484;10.216;2022-10-31T00:06:05;38.20;;;23.83;;
13571;SDS011;6857;53.484;10.216;2022-10-31T00:08:31;36.57;;;23.87;;
13571;SDS011;6857;53.484;10.216;2022-10-31T00:10:57;34.70;;;22.33;;
13571;SDS011;6857;53.484;10.216;2022-10-31T00:13:22;36.17;;;23.67;;
13571;SDS011;6857;53.484;10.216;2022-10-31T00:15:48;28.93;;;22.07;;
13571;SDS011;6857;53.484;10.216;2022-10-31T00:18:13;28.77;;;21.23;;
13571;SDS011;6857;53.484;10.216;2022-10-31T00:20:39;40.17;;;29.73;;
13571;SDS011;6857;53.484;10.216;2022-10-31T00:23:05;38.90;;;31.03;;
13571;SDS011;6857;53.484;10.216;2022-10-31T00:25:38;40.23;;;30.00;;
13571;SDS011;6857;53.484;10.216;2022-10-31T00:28:05;45.90;;;34.77;;
13571;SDS011;6857;53.484;10.216;2022-10-31T00:30:32;29.50;;;22.47;;
13571;SDS011;6857;53.484;10.216;2022-10-31T00:32:58;26.20;;;20.53;;
13571;SDS011;6857;53.484;10.216;2022-10-31T00:35:23;29.13;;;22.23;;
13571;SDS011;6857;53.484;10.216;2022-10-31T00:37:49;30.67;;;22.93;;
13571;SDS011;6857;53.484;10.216;2022-10-31T00:40:15;35.50;;;24.87;;
13571;SDS011;6857;53.484;10.216;2022-10-31T00:42:40;26.30;;;21.57;;
13571;SDS011;6857;53.484;10.216;2022-10-31T00:45:07;28.90;;;21.20;;
13571;SDS011;6857;53.484;10.216;2022-10-31T00:47:36;25.40;;;19.63;;
13571;SDS011;6857;53.484;10.216;2022-10-31T00:50:03;25.47;;;19.83;;
13571;SDS011;6857;53.484;10.216;2022-10-31T00:52:29;26.97;;;20.77;;
13571;SDS011;6857;53.484;10.216;2022-10-31T00:54:55;25.10;;;19.53;;
13571;SDS011;6857;53.484;10.216;2022-10-31T00:57:21;24.97;;;19.00;;
13571;SDS011;6857;53.484;10.216;2022-10-31T00:59:48;24.53;;;18.20;;
13571;SDS011;6857;53.484;10.216;2022-10-31T01:02:14;22.27;;;17.60;;
13571;SDS011;6857;53.484;10.216;2022-10-31T01:04:39;21.60;;;17.07;;
13571;SDS011;6857;53.484;10.216;2022-10-31T01:07:05;23.30;;;17.43;;
13571;SDS011;6857;53.484;10.216;2022-10-31T01:09:31;18.70;;;16.13;;
13571;SDS011;6857;53.484;10.216;2022-10-31T01:11:56;21.97;;;17.70;;
13571;SDS011;6857;53.484;10.216;2022-10-31T01:14:22;20.27;;;16.57;;
13571;SDS011;6857;53.484;10.216;2022-10-31T01:16:48;22.77;;;16.47;;
13571;SDS011;6857;53.484;10.216;2022-10-31T01:19:13;25.43;;;16.60;;
13571;SDS011;6857;53.484;10.216;2022-10-31T01:21:39;17.67;;;14.50;;
13571;SDS011;6857;53.484;10.216;2022-10-31T01:24:05;18.20;;;14.50;;
13571;SDS011;6857;53.484;10.216;2022-10-31T01:26:31;20.60;;;16.33;;
13571;SDS011;6857;53.484;10.216;2022-10-31T01:29:02;17.00;;;14.13;;
13571;SDS011;6857;53.484;10.216;2022-10-31T01:31:32;18.40;;;14.37;;
13571;SDS011;6857;53.484;10.216;2022-10-31T01:33:59;19.27;;;14.90;;
13571;SDS011;6857;53.484;10.216;2022-10-31T01:36:32;20.17;;;15.67;;
13571;SDS011;6857;53.484;10.216;2022-10-31T01:39:00;20.03;;;15.27;;
13571;SDS011;6857;53.484;10.216;2022-10-31T01:41:27;19.40;;;13.53;;
13571;SDS011;6857;53.484;10.216;2022-10-31T01:43:56;14.33;;;12.40;;
13571;SDS011;6857;53.484;10.216;2022-10-31T01:46:25;16.80;;;12.30;;
13571;SDS011;6857;53.484;10.216;2022-10-31T01:49:02;15.87;;;11.73;;
13571;SDS011;6857;53.484;10.216;2022-10-31T01:51:35;20.67;;;14.57;;
13571;SDS011;6857;53.484;10.216;2022-10-31T01:54:07;17.60;;;14.10;;
13571;SDS011;6857;53.484;10.216;2022-10-31T01:56:37;20.90;;;15.33;;
13571;SDS011;6857;53.484;10.216;2022-10-31T01:59:06;22.20;;;15.53;;
13571;SDS011;6857;53.484;10.216;2022-10-31T02:01:35;20.77;;;14.80;;
13571;SDS011;6857;53.484;10.216;2022-10-31T02:04:01;18.47;;;14.37;;
13571;SDS011;6857;53.484;10.216;2022-10-31T02:06:35;19.63;;;15.77;;
13571;SDS011;6857;53.484;10.216;2022-10-31T02:09:18;17.43;;;13.57;;
13571;SDS011;6857;53.484;10.216;2022-10-31T02:11:49;20.23;;;14.60;;
13571;SDS011;6857;53.484;10.216;2022-10-31T02:14:17;20.90;;;14.17;;
13571;SDS011;6857;53.484;10.216;2022-10-31T02:16:43;16.17;;;14.47;;
13571;SDS011;6857;53.484;10.216;2022-10-31T02:19:08;18.70;;;13.87;;
13571;SDS011;6857;53.484;10.216;2022-10-31T02:21:44;16.40;;;14.13;;
13571;SDS011;6857;53.484;10.216;2022-10-31T02:30:06;18.97;;;15.23;;
13571;SDS011;6857;53.484;10.216;2022-10-31T02:32:54;26.00;;;19.10;;
13571;SDS011;6857;53.484;10.216;2022-10-31T02:46:19;60.13;;;44.33;;
13571;SDS011;6857;53.484;10.216;2022-10-31T02:49:05;36.90;;;30.43;;
13571;SDS011;6857;53.484;10.216;2022-10-31T02:51:36;51.90;;;38.83;;
13571;SDS011;6857;53.484;10.216;2022-10-31T02:54:03;27.07;;;20.50;;
13571;SDS011;6857;53.484;10.216;2022-10-31T02:56:29;29.37;;;19.60;;
13571;SDS011;6857;53.484;10.216;2022-10-31T02:58:59;28.30;;;22.43;;
13571;SDS011;6857;53.484;10.216;2022-10-31T03:12:18;21.10;;;13.03;;
13571;SDS011;6857;53.484;10.216;2022-10-31T03:15:34;31.47;;;25.27;;
13571;SDS011;6857;53.484;10.216;2022-10-31T03:18:21;22.00;;;15.47;;
13571;SDS011;6857;53.484;10.216;2022-10-31T03:20:55;35.33;;;27.70;;
13571;SDS011;6857;53.484;10.216;2022-10-31T03:23:45;20.50;;;15.70;;
13571;SDS011;6857;53.484;10.216;2022-10-31T03:26:11;21.50;;;15.27;;
13571;SDS011;6857;53.484;10.216;2022-10-31T03:28:43;23.43;;;15.40;;
13571;SDS011;6857;53.484;10.216;2022-10-31T03:31:12;21.47;;;14.63;;
13571;SDS011;6857;53.484;10.216;2022-10-31T03:33:40;23.10;;;17.77;;
13571;SDS011;6857;53.484;10.216;2022-10-31T03:36:09;21.87;;;14.00;;
13571;SDS011;6857;53.484;10.216;2022-10-31T03:38:37;21.70;;;15.10;;
13571;SDS011;6857;53.484;10.216;2022-10-31T03:41:05;21.10;;;15.50;;
13571;SDS011;6857;53.484;10.216;2022-10-31T03:43:36;21.17;;;15.30;;
13571;SDS011;6857;53.484;10.216;2022-10-31T03:46:03;20.47;;;15.53;;
13571;SDS011;6857;53.484;10.216;2022-10-31T03:48:29;23.17;;;15.63;;
13571;SDS011;6857;53.484;10.216;2022-10-31T03:53:34;19.50;;;14.40;;
13571;SDS011;6857;53.484;10.216;2022-10-31T03:56:10;23.83;;;16.07;;
13571;SDS011;6857;53.484;10.216;2022-10-31T03:58:48;20.53;;;14.27;;
13571;SDS011;6857;53.484;10.216;2022-10-31T04:01:23;18.73;;;14.70;;
13571;SDS011;6857;53.484;10.216;2022-10-31T04:03:50;21.87;;;15.93;;
13571;SDS011;6857;53.484;10.216;2022-10-31T04:06:18;25.73;;;16.30;;
13571;SDS011;6857;53.484;10.216;2022-10-31T04:08:56;24.87;;;16.03;;
13571;SDS011;6857;53.484;10.216;2022-10-31T04:11:24;31.60;;;17.33;;
13571;SDS011;6857;53.484;10.216;2022-10-31T04:13:53;27.30;;;17.67;;
13571;SDS011;6857;53.484;10.216;2022-10-31T04:16:21;31.10;;;19.20;;
13571;SDS011;6857;53.484;10.216;2022-10-31T04:18:47;39.20;;;18.47;;
13571;SDS011;6857;53.484;10.216;2022-10-31T04:21:13;31.77;;;17.90;;
13571;SDS011;6857;53.484;10.216;2022-10-31T04:23:38;38.17;;;18.67;;
13571;SDS011;6857;53.484;10.216;2022-10-31T04:26:04;35.73;;;19.80;;
13571;SDS011;6857;53.484;10.216;2022-10-31T04:28:30;36.53;;;19.93;;
13571;SDS011;6857;53.484;10.216;2022-10-31T04:30:57;41.30;;;20.93;;
13571;SDS011;6857;53.484;10.216;2022-10-31T04:33:23;35.13;;;20.27;;
13571;SDS011;6857;53.484;10.216;2022-10-31T04:35:48;35.90;;;19.73;;
13571;SDS011;6857;53.484;10.216;2022-10-31T04:38:14;33.03;;;18.17;;
13571;SDS011;6857;53.484;10.216;2022-10-31T04:40:40;33.80;;;19.70;;
13571;SDS011;6857;53.484;10.216;2022-10-31T04:43:05;31.40;;;19.20;;
13571;SDS011;6857;53.484;10.216;2022-10-31T04:45:31;29.77;;;19.07;;
13571;SDS011;6857;53.484;10.216;2022-10-31T04:47:56;30.27;;;18.77;;
13571;SDS011;6857;53.484;10.216;2022-10-31T04:50:22;34.87;;;19.80;;
13571;SDS011;6857;53.484;10.216;2022-10-31T04:52:47;30.50;;;19.67;;
13571;SDS011;6857;53.484;10.216;2022-10-31T04:55:13;31.87;;;20.10;;
13571;SDS011;6857;53.484;10.216;2022-10-31T04:57:40;32.17;;;20.90;;
13571;SDS011;6857;53.484;10.216;2022-10-31T05:00:07;40.20;;;26.60;;
13571;SDS011;6857;53.484;10.216;2022-10-31T05:02:33;37.90;;;24.43;;
13571;SDS011;6857;53.484;10.216;2022-10-31T05:04:58;32.10;;;20.60;;
13571;SDS011;6857;53.484;10.216;2022-10-31T05:07:24;32.40;;;18.87;;
13571;SDS011;6857;53.484;10.216;2022-10-31T05:09:50;28.03;;;17.30;;
13571;SDS011;6857;53.484;10.216;2022-10-31T05:12:16;39.60;;;22.83;;
13571;SDS011;6857;53.484;10.216;2022-10-31T05:14:42;29.67;;;18.63;;
13571;SDS011;6857;53.484;10.216;2022-10-31T05:17:07;29.27;;;19.13;;
13571;SDS011;6857;53.484;10.216;2022-10-31T05:19:33;39.53;;;21.83;;
13571;SDS011;6857;53.484;10.216;2022-10-31T05:21:58;34.70;;;21.27;;
13571;SDS011;6857;53.484;10.216;2022-10-31T05:24:24;38.57;;;21.37;;
13571;SDS011;6857;53.484;10.216;2022-10-31T05:26:50;46.83;;;23.03;;
13571;SDS011;6857;53.484;10.216;2022-10-31T05:29:15;32.20;;;21.00;;
13571;SDS011;6857;53.484;10.216;2022-10-31T05:31:41;45.10;;;24.13;;
13571;SDS011;6857;53.484;10.216;2022-10-31T05:34:06;42.73;;;25.13;;
13571;SDS011;6857;53.484;10.216;2022-10-31T05:36:32;37.00;;;24.50;;
13571;SDS011;6857;53.484;10.216;2022-10-31T05:38:57;38.97;;;23.27;;
13571;SDS011;6857;53.484;10.216;2022-10-31T05:41:23;35.83;;;24.37;;
13571;SDS011;6857;53.484;10.216;2022-10-31T05:43:48;49.17;;;31.60;;
13571;SDS011;6857;53.484;10.216;2022-10-31T05:46:14;37.17;;;23.97;;
13571;SDS011;6857;53.484;10.216;2022-10-31T05:48:39;34.93;;;23.50;;
13571;SDS011;6857;53.484;10.216;2022-10-31T05:51:05;35.90;;;23.10;;
13571;SDS011;6857;53.484;10.216;2022-10-31T05:53:31;32.13;;;23.33;;
13571;SDS011;6857;53.484;10.216;2022-10-31T05:55:56;44.63;;;30.70;;
13571;SDS011;6857;53.484;10.216;2022-10-31T05:58:22;34.13;;;23.17;;
13571;SDS011;6857;53.484;10.216;2022-10-31T06:00:47;35.07;;;25.83;;
13571;SDS011;6857;53.484;10.216;2022-10-31T06:03:13;41.10;;;29.47;;
13571;SDS011;6857;53.484;10.216;2022-10-31T06:05:39;35.27;;;23.97;;
13571;SDS011;6857;53.484;10.216;2022-10-31T06:08:04;40.43;;;27.97;;
13571;SDS011;6857;53.484;10.216;2022-10-31T06:10:30;37.60;;;24.43;;
13571;SDS011;6857;53.484;10.216;2022-10-31T06:12:55;42.57;;;28.50;;
13571;SDS011;6857;53.484;10.216;2022-10-31T06:15:21;49.37;;;32.87;;
13571;SDS011;6857;53.484;10.216;2022-10-31T06:17:47;37.93;;;25.43;;
13571;SDS011;6857;53.484;10.216;2022-10-31T06:20:21;47.90;;;29.13;;
13571;SDS011;6857;53.484;10.216;2022-10-31T06:22:47;46.57;;;27.33;;
13571;SDS011;6857;53.484;10.216;2022-10-31T06:25:12;41.37;;;25.97;;
13571;SDS011;6857;53.484;10.216;2022-10-31T06:27:38;45.93;;;30.33;;
13571;SDS011;6857;53.484;10.216;2022-10-31T06:30:03;44.43;;;28.63;;
13571;SDS011;6857;53.484;10.216;2022-10-31T06:32:29;41.70;;;26.23;;
13571;SDS011;6857;53.484;10.216;2022-10-31T06:34:55;50.80;;;31.47;;
13571;SDS011;6857;53.484;10.216;2022-10-31T06:37:20;61.27;;;33.83;;
13571;SDS011;6857;53.484;10.216;2022-10-31T06:39:46;60.90;;;35.23;;
13571;SDS011;6857;53.484;10.216;2022-10-31T06:42:14;49.50;;;29.73;;
13571;SDS011;6857;53.484;10.216;2022-10-31T06:44:41;72.27;;;41.03;;
13571;SDS011;6857;53.484;10.216;2022-10-31T06:47:06;67.23;;;40.07;;
13571;SDS011;6857;53.484;10.216;2022-10-31T06:49:32;55.87;;;32.00;;
13571;SDS011;6857;53.484;10.216;2022-10-31T06:51:58;67.67;;;37.93;;
13571;SDS011;6857;53.484;10.216;2022-10-31T06:54:24;69.37;;;37.97;;
13571;SDS011;6857;53.484;10.216;2022-10-31T06:56:49;66.83;;;34.67;;
13571;SDS011;6857;53.484;10.216;2022-10-31T06:59:15;73.87;;;34.87;;
13571;SDS011;6857;53.484;10.216;2022-10-31T07:01:41;73.40;;;34.70;;
13571;SDS011;6857;53.484;10.216;2022-10-31T07:04:07;89.80;;;39.30;;
13571;SDS011;6857;53.484;10.216;2022-10-31T07:06:36;83.90;;;37.67;;
13571;SDS011;6857;53.484;10.216;2022-10-31T07:09:02;74.63;;;34.07;;
13571;SDS011;6857;53.484;10.216;2022-10-31T07:11:27;78.63;;;35.10;;
13571;SDS011;6857;53.484;10.216;2022-10-31T07:13:53;95.10;;;38.00;;
13571;SDS011;6857;53.484;10.216;2022-10-31T07:16:19;81.17;;;35.10;;
13571;SDS011;6857;53.484;10.216;2022-10-31T07:18:44;72.60;;;33.73;;
13571;SDS011;6857;53.484;10.216;2022-10-31T07:21:10;78.50;;;34.17;;
13571;SDS011;6857;53.484;10.216;2022-10-31T07:23:35;77.17;;;32.43;;
13571;SDS011;6857;53.484;10.216;2022-10-31T07:26:01;74.07;;;32.70;;
13571;SDS011;6857;53.484;10.216;2022-10-31T07:28:27;72.63;;;30.63;;
13571;SDS011;6857;53.484;10.216;2022-10-31T07:30:53;73.80;;;32.73;;
13571;SDS011;6857;53.484;10.216;2022-10-31T07:33:20;78.27;;;31.03;;
13571;SDS011;6857;53.484;10.216;2022-10-31T07:35:46;70.10;;;29.53;;
13571;SDS011;6857;53.484;10.216;2022-10-31T07:38:14;70.23;;;29.07;;
13571;SDS011;6857;53.484;10.216;2022-10-31T07:40:41;65.97;;;28.93;;
13571;SDS011;6857;53.484;10.216;2022-10-31T07:43:07;68.57;;;29.60;;
13571;SDS011;6857;53.484;10.216;2022-10-31T07:45:33;64.33;;;27.10;;
13571;SDS011;6857;53.484;10.216;2022-10-31T07:47:59;62.13;;;28.03;;
13571;SDS011;6857;53.484;10.216;2022-10-31T07:50:25;65.20;;;29.33;;
13571;SDS011;6857;53.484;10.216;2022-10-31T07:52:59;56.17;;;26.17;;
13571;SDS011;6857;53.484;10.216;2022-10-31T07:55:27;54.90;;;25.67;;
13571;SDS011;6857;53.484;10.216;2022-10-31T07:57:57;49.30;;;24.17;;
13571;SDS011;6857;53.484;10.216;2022-10-31T08:00:23;55.97;;;24.93;;
13571;SDS011;6857;53.484;10.216;2022-10-31T08:05:43;59.80;;;26.30;;
13571;SDS011;6857;53.484;10.216;2022-10-31T08:08:12;52.73;;;23.90;;
13571;SDS011;6857;53.484;10.216;2022-10-31T08:10:38;55.00;;;24.00;;
13571;SDS011;6857;53.484;10.216;2022-10-31T08:13:14;71.90;;;35.90;;
13571;SDS011;6857;53.484;10.216;2022-10-31T08:15:40;44.23;;;24.33;;
13571;SDS011;6857;53.484;10.216;2022-10-31T08:18:13;82.23;;;44.20;;
13571;SDS011;6857;53.484;10.216;2022-10-31T08:20:40;78.80;;;41.70;;
13571;SDS011;6857;53.484;10.216;2022-10-31T08:23:06;120.37;;;64.30;;
13571;SDS011;6857;53.484;10.216;2022-10-31T08:25:33;78.40;;;40.90;;
13571;SDS011;6857;53.484;10.216;2022-10-31T08:27:59;76.90;;;39.73;;
13571;SDS011;6857;53.484;10.216;2022-10-31T08:30:26;70.50;;;36.60;;
13571;SDS011;6857;53.484;10.216;2022-10-31T08:33:00;86.23;;;42.47;;
13571;SDS011;6857;53.484;10.216;2022-10-31T08:35:26;64.80;;;33.63;;
13571;SDS011;6857;53.484;10.216;2022-10-31T08:37:53;81.40;;;42.73;;
13571;SDS011;6857;53.484;10.216;2022-10-31T08:40:20;69.97;;;32.83;;
13571;SDS011;6857;53.484;10.216;2022-10-31T08:42:45;73.40;;;37.87;;
13571;SDS011;6857;53.484;10.216;2022-10-31T08:45:11;81.60;;;37.80;;
13571;SDS011;6857;53.484;10.216;2022-10-31T08:47:36;67.77;;;32.90;;
13571;SDS011;6857;53.484;10.216;2022-10-31T08:50:02;83.33;;;42.07;;
13571;SDS011;6857;53.484;10.216;2022-10-31T08:52:28;84.43;;;41.57;;
13571;SDS011;6857;53.484;10.216;2022-10-31T08:54:54;76.50;;;36.33;;
13571;SDS011;6857;53.484;10.216;2022-10-31T08:57:22;71.60;;;33.20;;
13571;SDS011;6857;53.484;10.216;2022-10-31T08:59:48;73.60;;;33.00;;
13571;SDS011;6857;53.484;10.216;2022-10-31T09:02:15;65.77;;;33.03;;
13571;SDS011;6857;53.484;10.216;2022-10-31T09:04:41;64.87;;;31.83;;
13571;SDS011;6857;53.484;10.216;2022-10-31T09:07:06;68.93;;;34.97;;
13571;SDS011;6857;53.484;10.216;2022-10-31T09:09:32;66.60;;;34.37;;
13571;SDS011;6857;53.484;10.216;2022-10-31T09:11:57;77.10;;;36.77;;
13571;SDS011;6857;53.484;10.216;2022-10-31T09:14:23;65.97;;;31.77;;
13571;SDS011;6857;53.484;10.216;2022-10-31T09:16:50;69.00;;;31.63;;
13571;SDS011;6857;53.484;10.216;2022-10-31T09:19:16;58.67;;;30.17;;
13571;SDS011;6857;53.484;10.216;2022-10-31T09:21:41;60.87;;;29.47;;
13571;SDS011;6857;53.484;10.216;2022-10-31T09:24:07;56.87;;;28.00;;
13571;SDS011;6857;53.484;10.216;2022-10-31T09:26:33;54.60;;;27.63;;
13571;SDS011;6857;53.484;10.216;2022-10-31T09:28:59;56.30;;;28.87;;
13571;SDS011;6857;53.484;10.216;2022-10-31T09:31:26;54.40;;;27.43;;
13571;SDS011;6857;53.484;10.216;2022-10-31T09:33:53;60.23;;;28.90;;
13571;SDS011;6857;53.484;10.216;2022-10-31T09:36:19;62.27;;;30.70;;
13571;SDS011;6857;53.484;10.216;2022-10-31T09:38:44;61.97;;;31.23;;
13571;SDS011;6857;53.484;10.216;2022-10-31T09:41:17;55.67;;;27.37;;
13571;SDS011;6857;53.484;10.216;2022-10-31T09:43:56;55.60;;;27.50;;
13571;SDS011;6857;53.484;10.216;2022-10-31T09:52:05;45.23;;;24.70;;
13571;SDS011;6857;53.484;10.216;2022-10-31T09:57:14;51.10;;;25.10;;
13571;SDS011;6857;53.484;10.216;2022-10-31T09:59:43;42.07;;;24.17;;
13571;SDS011;6857;53.484;10.216;2022-10-31T10:02:16;47.50;;;24.27;;
13571;SDS011;6857;53.484;10.216;2022-10-31T10:04:59;41.17;;;21.57;;
13571;SDS011;6857;53.484;10.216;2022-10-31T10:07:44;43.30;;;22.43;;
13571;SDS011;6857;53.484;10.216;2022-10-31T10:16:03;35.20;;;20.40;;
13571;SDS011;6857;53.484;10.216;2022-10-31T10:18:46;34.83;;;21.20;;
13571;SDS011;6857;53.484;10.216;2022-10-31T10:26:20;43.97;;;26.10;;
13571;SDS011;6857;53.484;10.216;2022-10-31T10:28:49;32.53;;;20.97;;
13571;SDS011;6857;53.484;10.216;2022-10-31T10:31:27;35.07;;;20.83;;
13571;SDS011;6857;53.484;10.216;2022-10-31T10:34:08;32.53;;;19.13;;
13571;SDS011;6857;53.484;10.216;2022-10-31T10:36:42;31.53;;;19.17;;
13571;SDS011;6857;53.484;10.216;2022-10-31T10:39:16;34.17;;;21.13;;
13571;SDS011;6857;53.484;10.216;2022-10-31T10:41:57;30.80;;;16.97;;
13571;SDS011;6857;53.484;10.216;2022-10-31T10:44:46;31.33;;;20.43;;
13571;SDS011;6857;53.484;10.216;2022-10-31T10:47:36;30.00;;;19.77;;
13571;SDS011;6857;53.484;10.216;2022-10-31T10:50:19;31.40;;;19.67;;
13571;SDS011;6857;53.484;10.216;2022-10-31T10:58:18;27.50;;;18.43;;
13571;SDS011;6857;53.484;10.216;2022-10-31T11:00:45;27.17;;;17.80;;
13571;SDS011;6857;53.484;10.216;2022-10-31T11:03:11;28.03;;;17.93;;
13571;SDS011;6857;53.484;10.216;2022-10-31T11:05:55;30.00;;;18.17;;
13571;SDS011;6857;53.484;10.216;2022-10-31T11:08:33;28.43;;;18.60;;
13571;SDS011;6857;53.484;10.216;2022-10-31T11:11:07;34.90;;;23.47;;
13571;SDS011;6857;53.484;10.216;2022-10-31T11:13:46;27.93;;;18.57;;
13571;SDS011;6857;53.484;10.216;2022-10-31T11:16:30;27.23;;;18.33;;
13571;SDS011;6857;53.484;10.216;2022-10-31T11:19:06;30.30;;;19.60;;
13571;SDS011;6857;53.484;10.216;2022-10-31T11:21:43;36.77;;;23.73;;
13571;SDS011;6857;53.484;10.216;2022-10-31T11:26:39;36.80;;;26.00;;
13571;SDS011;6857;53.484;10.216;2022-10-31T11:29:11;39.13;;;27.67;;
13571;SDS011;6857;53.484;10.216;2022-10-31T11:31:40;71.67;;;55.27;;
13571;SDS011;6857;53.484;10.216;2022-10-31T11:34:11;34.37;;;20.70;;
13571;SDS011;6857;53.484;10.216;2022-10-31T11:36:42;44.77;;;32.67;;
13571;SDS011;6857;53.484;10.216;2022-10-31T11:39:14;27.60;;;18.77;;
13571;SDS011;6857;53.484;10.216;2022-10-31T11:41:47;34.17;;;20.23;;
13571;SDS011;6857;53.484;10.216;2022-10-31T11:46:43;26.50;;;18.60;;
13571;SDS011;6857;53.484;10.216;2022-10-31T11:49:19;26.40;;;19.23;;
13571;SDS011;6857;53.484;10.216;2022-10-31T11:52:19;28.13;;;18.20;;
13571;SDS011;6857;53.484;10.216;2022-10-31T11:57:46;27.43;;;18.50;;
13571;SDS011;6857;53.484;10.216;2022-10-31T12:03:03;33.83;;;22.43;;
13571;SDS011;6857;53.484;10.216;2022-10-31T12:05:29;29.50;;;19.73;;
13571;SDS011;6857;53.484;10.216;2022-10-31T12:07:57;28.83;;;19.80;;
13571;SDS011;6857;53.484;10.216;2022-10-31T12:10:24;30.60;;;21.27;;
13571;SDS011;6857;53.484;10.216;2022-10-31T12:15:34;29.87;;;19.83;;
13571;SDS011;6857;53.484;10.216;2022-10-31T12:26:31;28.67;;;19.20;;
13571;SDS011;6857;53.484;10.216;2022-10-31T12:31:46;34.13;;;21.53;;
13571;SDS011;6857;53.484;10.216;2022-10-31T12:37:00;26.67;;;17.70;;
13571;SDS011;6857;53.484;10.216;2022-10-31T12:45:43;22.37;;;15.40;;
13571;SDS011;6857;53.484;10.216;2022-10-31T12:47:44;22.60;;;14.80;;
13571;SDS011;6857;53.484;10.216;2022-10-31T12:53:30;23.20;;;15.20;;
13571;SDS011;6857;53.484;10.216;2022-10-31T12:56:12;24.17;;;16.33;;
13571;SDS011;6857;53.484;10.216;2022-10-31T12:59:15;21.30;;;13.10;;
13571;SDS011;6857;53.484;10.216;2022-10-31T13:02:09;20.97;;;13.90;;
13571;SDS011;6857;53.484;10.216;2022-10-31T13:04:43;20.97;;;15.27;;
13571;SDS011;6857;53.484;10.216;2022-10-31T13:07:37;19.83;;;14.70;;
13571;SDS011;6857;53.484;10.216;2022-10-31T13:10:22;19.17;;;13.77;;
13571;SDS011;6857;53.484;10.216;2022-10-31T13:13:21;27.00;;;17.47;;
13571;SDS011;6857;53.484;10.216;2022-10-31T13:16:12;35.27;;;22.30;;
13571;SDS011;6857;53.484;10.216;2022-10-31T13:18:48;19.63;;;13.77;;
13571;SDS011;6857;53.484;10.216;2022-10-31T13:21:36;30.90;;;21.63;;
13571;SDS011;6857;53.484;10.216;2022-10-31T13:27:25;19.60;;;12.27;;
13571;SDS011;6857;53.484;10.216;2022-10-31T13:30:19;22.33;;;16.13;;
13571;SDS011;6857;53.484;10.216;2022-10-31T13:35:48;18.10;;;12.80;;
13571;SDS011;6857;53.484;10.216;2022-10-31T13:38:39;25.00;;;16.23;;
13571;SDS011;6857;53.484;10.216;2022-10-31T13:46:38;20.77;;;14.57;;
13571;SDS011;6857;53.484;10.216;2022-10-31T13:49:21;27.00;;;17.43;;
13571;SDS011;6857;53.484;10.216;2022-10-31T13:54:39;20.47;;;13.70;;
13571;SDS011;6857;53.484;10.216;2022-10-31T13:57:22;26.57;;;16.07;;
13571;SDS011;6857;53.484;10.216;2022-10-31T13:59:54;25.40;;;17.80;;
13571;SDS011;6857;53.484;10.216;2022-10-31T14:02:26;29.73;;;18.23;;
13571;SDS011;6857;53.484;10.216;2022-10-31T14:05:02;24.50;;;15.90;;
13571;SDS011;6857;53.484;10.216;2022-10-31T14:07:30;25.50;;;17.53;;
13571;SDS011;6857;53.484;10.216;2022-10-31T14:10:06;29.53;;;21.77;;
13571;SDS011;6857;53.484;10.216;2022-10-31T14:12:52;31.37;;;21.03;;
13571;SDS011;6857;53.484;10.216;2022-10-31T14:15:40;32.53;;;22.50;;
13571;SDS011;6857;53.484;10.216;2022-10-31T14:18:21;27.13;;;18.13;;
13571;SDS011;6857;53.484;10.216;2022-10-31T14:20:49;27.03;;;17.97;;
13571;SDS011;6857;53.484;10.216;2022-10-31T14:28:33;22.87;;;15.30;;
13571;SDS011;6857;53.484;10.216;2022-10-31T14:31:00;23.63;;;15.70;;
13571;SDS011;6857;53.484;10.216;2022-10-31T14:33:27;41.10;;;28.87;;
13571;SDS011;6857;53.484;10.216;2022-10-31T14:38:35;31.37;;;20.10;;
13571;SDS011;6857;53.484;10.216;2022-10-31T14:41:18;30.73;;;21.63;;
13571;SDS011;6857;53.484;10.216;2022-10-31T14:44:04;31.57;;;21.10;;
13571;SDS011;6857;53.484;10.216;2022-10-31T14:49:55;26.43;;;18.63;;
13571;SDS011;6857;53.484;10.216;2022-10-31T14:52:26;27.57;;;18.00;;
13571;SDS011;6857;53.484;10.216;2022-10-31T14:54:53;33.63;;;21.90;;
13571;SDS011;6857;53.484;10.216;2022-10-31T14:57:29;33.77;;;22.43;;
13571;SDS011;6857;53.484;10.216;2022-10-31T15:05:40;29.23;;;17.20;;
13571;SDS011;6857;53.484;10.216;2022-10-31T15:08:12;26.27;;;15.17;;
13571;SDS011;6857;53.484;10.216;2022-10-31T15:10:38;31.10;;;19.47;;
13571;SDS011;6857;53.484;10.216;2022-10-31T15:13:17;38.70;;;24.83;;
13571;SDS011;6857;53.484;10.216;2022-10-31T15:15:45;22.23;;;14.90;;
13571;SDS011;6857;53.484;10.216;2022-10-31T15:18:17;23.07;;;15.00;;
13571;SDS011;6857;53.484;10.216;2022-10-31T15:20:46;29.67;;;19.17;;
13571;SDS011;6857;53.484;10.216;2022-10-31T15:23:16;23.37;;;12.83;;
13571;SDS011;6857;53.484;10.216;2022-10-31T15:25:59;20.57;;;13.23;;
13571;SDS011;6857;53.484;10.216;2022-10-31T15:28:29;23.80;;;16.60;;
13571;SDS011;6857;53.484;10.216;2022-10-31T15:30:59;30.70;;;18.40;;
13571;SDS011;6857;53.484;10.216;2022-10-31T15:33:29;23.67;;;15.17;;
13571;SDS011;6857;53.484;10.216;2022-10-31T15:36:21;25.93;;;15.83;;
13571;SDS011;6857;53.484;10.216;2022-10-31T15:38:48;36.73;;;23.33;;
13571;SDS011;6857;53.484;10.216;2022-10-31T15:43:49;24.83;;;13.77;;
13571;SDS011;6857;53.484;10.216;2022-10-31T15:46:15;24.27;;;14.60;;
13571;SDS011;6857;53.484;10.216;2022-10-31T15:48:43;31.77;;;19.23;;
13571;SDS011;6857;53.484;10.216;2022-10-31T15:51:11;29.70;;;17.13;;
13571;SDS011;6857;53.484;10.216;2022-10-31T15:53:41;31.00;;;16.53;;
13571;SDS011;6857;53.484;10.216;2022-10-31T15:56:13;30.10;;;18.40;;
13571;SDS011;6857;53.484;10.216;2022-10-31T15:58:47;27.23;;;16.30;;
13571;SDS011;6857;53.484;10.216;2022-10-31T16:01:32;28.83;;;16.80;;
13571;SDS011;6857;53.484;10.216;2022-10-31T16:03:59;26.63;;;15.63;;
13571;SDS011;6857;53.484;10.216;2022-10-31T16:06:34;31.80;;;19.60;;
13571;SDS011;6857;53.484;10.216;2022-10-31T16:09:00;27.30;;;16.27;;
13571;SDS011;6857;53.484;10.216;2022-10-31T16:11:34;28.53;;;16.27;;
13571;SDS011;6857;53.484;10.216;2022-10-31T16:16:44;26.80;;;16.80;;
13571;SDS011;6857;53.484;10.216;2022-10-31T16:19:30;31.23;;;18.37;;
13571;SDS011;6857;53.484;10.216;2022-10-31T16:22:06;26.87;;;15.40;;
13571;SDS011;6857;53.484;10.216;2022-10-31T16:24:38;32.00;;;16.53;;
13571;SDS011;6857;53.484;10.216;2022-10-31T16:27:18;24.40;;;15.77;;
13571;SDS011;6857;53.484;10.216;2022-10-31T16:29:50;30.23;;;16.37;;
13571;SDS011;6857;53.484;10.216;2022-10-31T16:32:26;28.70;;;15.83;;
13571;SDS011;6857;53.484;10.216;2022-10-31T16:35:00;28.77;;;15.83;;
13571;SDS011;6857;53.484;10.216;2022-10-31T16:37:32;24.73;;;15.10;;
13571;SDS011;6857;53.484;10.216;2022-10-31T16:39:58;28.67;;;16.37;;
13571;SDS011;6857;53.484;10.216;2022-10-31T16:42:23;31.37;;;17.07;;
13571;SDS011;6857;53.484;10.216;2022-10-31T16:44:49;34.17;;;20.20;;
13571;SDS011;6857;53.484;10.216;2022-10-31T16:47:15;29.10;;;17.20;;
13571;SDS011;6857;53.484;10.216;2022-10-31T16:49:42;31.77;;;18.57;;